Benalmádena, Spain

6:35 PM CET on February 08, 2016 (GMT +0100)
Torrequebrada | | Change Station
CLOSE
Current Station
Personal Weather Station
Location: Benalmádena, ANDALUCíA
Elevation: 167 ft
Nearby Weather Stations

Elev 167 ft 36.58 °N, 4.55 °W | Updated 3 seconds ago

Partly Cloudy
Partly Cloudy
62.4 °F
Feels Like 62.4 °F
N
6.0
Wind Variable Wind from North
Gusts 21.3 mph

Today
High -- | Low -- °F
--% Chance of Precip.
Yesterday
High -- | Low -- °F
Precip. -- in
Pressure 30.33 in
Visibility 6.2 miles
Clouds Few 3000 ft
Dew Point 5 °F
Humidity 10%
Rainfall 0.00 in
Snow Depth Not available.
8:14 AM 6:50 PM
New Moon, 0% visible
METAR LEMG 081700Z 30013KT 270V330 9999 FEW030 17/07 Q1027 NOSIG
Pressure 30.33 in
Visibility 6.2 miles
Clouds Few 3000 ft
Dew Point 5 °F
Humidity 10%
Rainfall 0.00 in
Snow Depth Not available.
8:14 AM 6:50 PM
New Moon, 0% visible
METAR LEMG 081700Z 30013KT 270V330 9999 FEW030 17/07 Q1027 NOSIG

10-Day Weather Forecast

Almanac

Astronomy

Feb. 08, 2016 Rise Set
Actual Time
Civil Twilight
Nautical Twilight
Astronomical Twilight
Moon
Length of Visible Light
Length of Day
Tomorrow will be .
, % of the Moon is Illuminated

Today's Extremes

Country Highs Country Lows

Community

WunderPhotos

Upload Photos

1,891,473 photos uploaded!

WunderBlog® & News

Nearby

Air Quality

  Air Quality AQ Index Pollutant
Not available.

Snow Depth

Station Depth Elevation

Earthquake Activity

City Distance Mag. Time & Date
Minimum magnitude displayed is 2.5.

Coastal Water Temperatures

Place Temperature

Stations

Nearby Weather Stations

Station Location Temp. Windchill Dew Point Humidity Wind Precip. Elev Updated Type